Time;durP1;ratioP1;P1;durP2;ratioP2;P2;SDS_P1;SDS_P2;PMS_P1;PMS_P2;Temp;Humidity;BMP_temperature;BMP_pressure;BME280_temperature;BME280_humidity;BME280_pressure;Samples;Min_cycle;Max_cycle;Signal;HPM_P1;HPM_P2
2022/03/31 00:00:32;;;;;;;14.47;7.00;;;;;;;;;;5111659;28;20256;-71
2022/03/31 00:03:01;;;;;;;16.97;7.33;;;;;;;;;;5116383;28;20288;-71
2022/03/31 00:05:29;;;;;;;18.50;7.33;;;;;;;;;;5120973;28;20658;-71
2022/03/31 00:07:58;;;;;;;21.80;8.07;;;;;;;;;;5117258;28;20624;-71
2022/03/31 00:10:27;;;;;;;19.03;8.27;;;;;;;;;;5113008;28;20670;-71
2022/03/31 00:12:56;;;;;;;17.20;8.10;;;;;;;;;;5120850;28;20311;-71
2022/03/31 00:15:24;;;;;;;15.03;8.00;;;;;;;;;;5120617;28;20221;-71
2022/03/31 00:17:54;;;;;;;18.87;8.10;;;;;;;;;;5120670;28;20749;-71
2022/03/31 00:20:22;;;;;;;16.23;7.37;;;;;;;;;;5108098;28;20232;-71
2022/03/31 00:22:50;;;;;;;14.63;8.00;;;;;;;;;;5120409;28;20232;-71
2022/03/31 00:25:18;;;;;;;18.33;7.83;;;;;;;;;;5120777;28;20312;-71
2022/03/31 00:27:46;;;;;;;19.23;8.40;;;;;;;;;;5105110;27;20261;-71
2022/03/31 00:30:15;;;;;;;14.47;8.13;;;;;;;;;;5120517;28;20287;-71
2022/03/31 00:32:43;;;;;;;17.20;8.13;;;;;;;;;;5120108;28;20656;-71
2022/03/31 00:35:13;;;;;;;14.17;7.77;;;;;;;;;;5120167;28;20710;-71
2022/03/31 00:37:42;;;;;;;15.23;7.90;;;;;;;;;;5120153;28;20247;-71
2022/03/31 00:40:11;;;;;;;20.23;8.03;;;;;;;;;;5112212;27;20232;-71
2022/03/31 00:42:40;;;;;;;15.33;8.43;;;;;;;;;;5101365;27;20280;-69
2022/03/31 00:45:12;;;;;;;15.33;8.33;;;;;;;;;;5119992;28;20236;-69
2022/03/31 00:47:40;;;;;;;18.77;8.63;;;;;;;;;;5119884;28;20631;-70
2022/03/31 00:50:09;;;;;;;16.03;8.13;;;;;;;;;;5118909;28;20232;-70
2022/03/31 00:52:38;;;;;;;16.70;9.07;;;;;;;;;;5119782;28;20256;-68
2022/03/31 00:55:08;;;;;;;16.80;7.77;;;;;;;;;;5120194;28;20237;-71
2022/03/31 00:57:36;;;;;;;15.97;7.53;;;;;;;;;;5119112;28;20288;-71
2022/03/31 01:00:05;;;;;;;17.27;8.43;;;;;;;;;;5110164;28;20244;-70
2022/03/31 01:02:33;;;;;;;15.53;8.03;;;;;;;;;;5115715;28;20232;-71
2022/03/31 01:05:01;;;;;;;18.00;7.83;;;;;;;;;;5120064;28;20205;-71
2022/03/31 01:07:29;;;;;;;15.30;7.93;;;;;;;;;;5119690;28;20643;-70
2022/03/31 01:09:59;;;;;;;15.33;8.07;;;;;;;;;;5119962;28;20291;-70
2022/03/31 01:12:27;;;;;;;15.60;7.93;;;;;;;;;;5116677;28;20288;-70
2022/03/31 01:15:06;;;;;;;17.37;6.73;;;;;;;;;;5119613;28;20208;-70
2022/03/31 01:17:34;;;;;;;12.77;6.80;;;;;;;;;;5119155;28;20215;-70
2022/03/31 01:20:03;;;;;;;8.80;5.40;;;;;;;;;;5109008;28;20281;-70
2022/03/31 01:22:32;;;;;;;10.87;5.90;;;;;;;;;;5116153;28;20235;-70
2022/03/31 01:25:02;;;;;;;15.93;5.80;;;;;;;;;;5119614;28;20291;-70
2022/03/31 01:27:30;;;;;;;7.77;5.00;;;;;;;;;;5118803;28;20276;-71
2022/03/31 01:29:59;;;;;;;11.80;5.93;;;;;;;;;;5111409;28;20201;-70
2022/03/31 01:32:27;;;;;;;8.07;4.73;;;;;;;;;;5116019;28;20797;-71
2022/03/31 01:34:56;;;;;;;11.70;5.30;;;;;;;;;;5117930;28;20684;-70
2022/03/31 01:37:24;;;;;;;10.77;5.30;;;;;;;;;;5119194;28;20249;-70
2022/03/31 01:39:52;;;;;;;10.30;4.80;;;;;;;;;;5108482;28;20712;-70
2022/03/31 01:42:22;;;;;;;13.80;4.97;;;;;;;;;;5115656;28;20292;-70
2022/03/31 01:44:50;;;;;;;11.27;4.73;;;;;;;;;;5116600;28;20744;-70
2022/03/31 01:47:19;;;;;;;10.63;4.90;;;;;;;;;;5119012;28;20288;-71
2022/03/31 01:49:47;;;;;;;16.23;4.90;;;;;;;;;;5116108;28;20744;-70
2022/03/31 01:52:15;;;;;;;10.60;6.03;;;;;;;;;;5117917;28;20269;-70
2022/03/31 01:54:43;;;;;;;11.30;5.47;;;;;;;;;;5115931;27;20225;-70
2022/03/31 01:57:12;;;;;;;12.67;4.60;;;;;;;;;;5118875;28;20267;-70
2022/03/31 01:59:42;;;;;;;10.43;5.10;;;;;;;;;;5117338;28;20684;-70
2022/03/31 02:02:10;;;;;;;14.40;5.20;;;;;;;;;;5118937;28;20232;-70
2022/03/31 02:04:39;;;;;;;10.40;5.00;;;;;;;;;;5114174;28;20232;-70
2022/03/31 02:07:07;;;;;;;12.20;6.43;;;;;;;;;;5114330;28;20248;-70
2022/03/31 02:09:35;;;;;;;11.37;5.30;;;;;;;;;;5112764;28;20244;-70
2022/03/31 02:12:03;;;;;;;11.93;5.60;;;;;;;;;;5116712;28;20243;-70
2022/03/31 02:14:32;;;;;;;11.30;5.20;;;;;;;;;;5118333;28;20270;-71
2022/03/31 02:17:02;;;;;;;11.27;5.43;;;;;;;;;;5117533;28;20256;-70
2022/03/31 02:19:31;;;;;;;11.60;5.50;;;;;;;;;;5118578;28;20228;-70
2022/03/31 02:21:59;;;;;;;10.27;5.23;;;;;;;;;;5117511;28;20236;-70
2022/03/31 02:24:27;;;;;;;11.20;5.00;;;;;;;;;;5117199;28;20236;-70
2022/03/31 02:26:55;;;;;;;15.13;5.90;;;;;;;;;;5118297;28;20264;-70
2022/03/31 02:29:23;;;;;;;10.20;5.27;;;;;;;;;;5114160;28;20233;-70
2022/03/31 02:31:56;;;;;;;10.20;5.27;;;;;;;;;;5111382;28;20204;-70
2022/03/31 02:34:26;;;;;;;10.23;5.20;;;;;;;;;;5118374;28;20319;-70
2022/03/31 02:36:54;;;;;;;8.70;4.90;;;;;;;;;;5118223;28;20256;-70
2022/03/31 02:39:22;;;;;;;11.80;5.43;;;;;;;;;;5118361;28;20236;-70
2022/03/31 02:41:50;;;;;;;7.13;5.17;;;;;;;;;;5117991;28;20292;-70
2022/03/31 02:44:18;;;;;;;13.50;5.13;;;;;;;;;;5106348;28;20280;-71
2022/03/31 02:46:46;;;;;;;9.13;5.63;;;;;;;;;;5112748;28;20260;-70
2022/03/31 02:49:14;;;;;;;11.37;5.50;;;;;;;;;;5106721;28;20243;-71
2022/03/31 02:51:43;;;;;;;10.60;5.67;;;;;;;;;;5117619;28;20240;-70
2022/03/31 02:56:56;;;;;;;13.93;5.60;;;;;;;;;;5118239;28;20319;-70
2022/03/31 02:59:24;;;;;;;11.80;5.17;;;;;;;;;;5117940;28;20304;-71
2022/03/31 03:01:52;;;;;;;11.53;5.33;;;;;;;;;;5117800;28;20287;-70
2022/03/31 03:04:20;;;;;;;9.13;4.73;;;;;;;;;;5105797;28;20210;-70
2022/03/31 03:06:50;;;;;;;12.63;5.30;;;;;;;;;;5119734;28;20314;-69
2022/03/31 03:09:18;;;;;;;9.10;5.20;;;;;;;;;;5121857;28;20637;-70
2022/03/31 03:11:46;;;;;;;13.87;5.70;;;;;;;;;;5122135;28;20264;-70
2022/03/31 03:14:14;;;;;;;9.97;5.10;;;;;;;;;;5122082;28;20220;-70
2022/03/31 03:16:42;;;;;;;11.13;5.30;;;;;;;;;;5121463;28;20687;-70
2022/03/31 03:19:10;;;;;;;11.33;5.33;;;;;;;;;;5120847;28;20681;-70
2022/03/31 03:21:38;;;;;;;10.13;5.20;;;;;;;;;;5108321;28;20247;-70
2022/03/31 03:24:08;;;;;;;10.97;4.77;;;;;;;;;;5107576;28;20225;-70
2022/03/31 03:26:36;;;;;;;8.67;4.50;;;;;;;;;;5121573;28;20221;-70
2022/03/31 03:29:04;;;;;;;10.97;5.60;;;;;;;;;;5119562;28;20233;-70
2022/03/31 03:31:32;;;;;;;12.57;4.83;;;;;;;;;;5118024;28;20231;-70
2022/03/31 03:34:00;;;;;;;8.63;5.10;;;;;;;;;;5121445;28;20236;-70
2022/03/31 03:36:28;;;;;;;11.80;5.07;;;;;;;;;;5121615;28;20315;-70
2022/03/31 03:38:56;;;;;;;8.60;4.83;;;;;;;;;;5114403;28;20276;-70
2022/03/31 03:41:26;;;;;;;11.37;4.73;;;;;;;;;;5114760;28;20251;-70
2022/03/31 03:43:54;;;;;;;10.10;4.70;;;;;;;;;;5121347;28;20325;-70
2022/03/31 03:46:23;;;;;;;8.70;4.77;;;;;;;;;;5120996;28;20308;-70
2022/03/31 03:48:51;;;;;;;10.77;5.47;;;;;;;;;;5119358;27;20289;-70
2022/03/31 03:51:19;;;;;;;7.47;4.93;;;;;;;;;;5113213;28;20253;-71
2022/03/31 03:53:47;;;;;;;11.47;5.23;;;;;;;;;;5118950;28;20234;-69
2022/03/31 03:56:16;;;;;;;12.73;5.13;;;;;;;;;;5119589;28;20312;-70
2022/03/31 03:58:46;;;;;;;10.93;4.93;;;;;;;;;;5120259;28;20268;-74
2022/03/31 04:01:14;;;;;;;8.80;4.53;;;;;;;;;;5118669;28;20631;-74
2022/03/31 04:03:42;;;;;;;9.60;5.30;;;;;;;;;;5119041;28;20205;-74
2022/03/31 04:06:11;;;;;;;9.43;4.97;;;;;;;;;;5119706;28;20263;-75
2022/03/31 04:08:39;;;;;;;7.57;5.63;;;;;;;;;;5119587;28;20607;-74
2022/03/31 04:11:07;;;;;;;11.33;6.20;;;;;;;;;;5118766;28;20236;-75
2022/03/31 04:13:35;;;;;;;11.53;5.63;;;;;;;;;;5119628;28;20641;-73
2022/03/31 04:16:05;;;;;;;6.60;5.33;;;;;;;;;;5118478;28;20328;-75
2022/03/31 04:18:33;;;;;;;8.53;5.57;;;;;;;;;;5117111;28;20205;-75
2022/03/31 04:21:02;;;;;;;13.53;5.27;;;;;;;;;;5120522;28;20632;-75
2022/03/31 04:23:30;;;;;;;8.50;5.10;;;;;;;;;;5118935;28;20204;-75
2022/03/31 04:25:58;;;;;;;12.30;6.03;;;;;;;;;;5117305;28;20299;-75
2022/03/31 04:28:27;;;;;;;8.10;5.23;;;;;;;;;;5116914;28;20254;-75
2022/03/31 04:30:55;;;;;;;7.10;5.20;;;;;;;;;;5114266;28;20305;-75
2022/03/31 04:33:26;;;;;;;10.10;5.50;;;;;;;;;;5113449;28;20265;-71
2022/03/31 04:35:54;;;;;;;12.03;5.90;;;;;;;;;;5117365;28;20332;-70
2022/03/31 04:38:22;;;;;;;9.03;5.77;;;;;;;;;;5117342;28;20837;-71
2022/03/31 04:40:50;;;;;;;9.20;5.23;;;;;;;;;;5118270;28;20644;-71
2022/03/31 04:43:18;;;;;;;11.13;6.60;;;;;;;;;;5115641;28;20279;-70
2022/03/31 04:45:46;;;;;;;9.10;5.43;;;;;;;;;;5117487;28;20248;-69
2022/03/31 04:48:14;;;;;;;13.03;6.10;;;;;;;;;;5118822;28;20239;-69
2022/03/31 04:50:43;;;;;;;14.87;6.73;;;;;;;;;;5116776;28;20280;-71
2022/03/31 04:53:12;;;;;;;9.53;5.50;;;;;;;;;;5118682;28;20232;-72
2022/03/31 04:55:41;;;;;;;9.03;5.43;;;;;;;;;;5112633;28;20217;-71
2022/03/31 04:58:09;;;;;;;10.10;6.40;;;;;;;;;;5118440;28;20643;-71
2022/03/31 05:00:37;;;;;;;9.20;6.20;;;;;;;;;;5071878;28;1255003;-70
2022/03/31 05:03:05;;;;;;;13.17;6.80;;;;;;;;;;5119538;28;20280;-72
2022/03/31 05:05:34;;;;;;;10.40;6.00;;;;;;;;;;5118821;28;20213;-72
2022/03/31 05:08:03;;;;;;;10.57;5.60;;;;;;;;;;5119547;28;20232;-73
2022/03/31 05:10:31;;;;;;;10.17;6.30;;;;;;;;;;5116670;28;20236;-73
2022/03/31 05:13:00;;;;;;;8.23;6.17;;;;;;;;;;5117938;28;20197;-73
2022/03/31 05:15:28;;;;;;;12.10;6.63;;;;;;;;;;5119141;28;20737;-74
2022/03/31 05:18:01;;;;;;;11.57;6.97;;;;;;;;;;5104997;27;20201;-73
2022/03/31 05:20:29;;;;;;;12.50;7.53;;;;;;;;;;5104759;28;20232;-73
2022/03/31 05:22:57;;;;;;;12.10;6.37;;;;;;;;;;5119570;28;20242;-73
2022/03/31 05:25:26;;;;;;;14.47;6.97;;;;;;;;;;5119438;28;20265;-73
2022/03/31 05:27:54;;;;;;;13.67;7.57;;;;;;;;;;5119638;28;20345;-73
2022/03/31 05:30:22;;;;;;;12.37;6.80;;;;;;;;;;5115444;28;20225;-73
2022/03/31 05:32:52;;;;;;;10.00;6.83;;;;;;;;;;5110144;28;20621;-73
2022/03/31 05:35:21;;;;;;;15.20;7.77;;;;;;;;;;5105811;28;20878;-73
2022/03/31 05:37:49;;;;;;;13.87;8.17;;;;;;;;;;5114786;27;20233;-72
2022/03/31 05:40:18;;;;;;;11.67;7.17;;;;;;;;;;5115695;28;20291;-72
2022/03/31 05:42:47;;;;;;;13.00;7.00;;;;;;;;;;5119046;28;20228;-72
2022/03/31 05:45:15;;;;;;;13.47;7.03;;;;;;;;;;5118711;28;20197;-75
2022/03/31 05:47:44;;;;;;;14.73;7.90;;;;;;;;;;5117343;28;20216;-75
2022/03/31 05:50:13;;;;;;;12.73;7.83;;;;;;;;;;5119167;28;20222;-67
2022/03/31 05:52:42;;;;;;;14.70;7.37;;;;;;;;;;5104879;28;20740;-66
2022/03/31 05:55:11;;;;;;;10.83;7.17;;;;;;;;;;5107182;28;20241;-65
2022/03/31 05:57:39;;;;;;;14.37;7.90;;;;;;;;;;5116057;28;20232;-65
2022/03/31 06:00:10;;;;;;;13.73;7.93;;;;;;;;;;5115631;28;20786;-65
2022/03/31 06:02:38;;;;;;;11.03;6.97;;;;;;;;;;5117563;28;20212;-65
2022/03/31 06:05:17;;;;;;;11.57;7.60;;;;;;;;;;5117113;28;20225;-65
2022/03/31 06:07:45;;;;;;;13.30;7.07;;;;;;;;;;5115086;28;20228;-65
2022/03/31 06:10:13;;;;;;;17.23;7.60;;;;;;;;;;5117118;28;20269;-65
2022/03/31 06:12:41;;;;;;;13.60;7.37;;;;;;;;;;5117544;28;20232;-65
2022/03/31 06:15:11;;;;;;;14.37;7.53;;;;;;;;;;5116830;28;20641;-65
2022/03/31 06:17:41;;;;;;;14.27;7.77;;;;;;;;;;5117411;28;20284;-65
2022/03/31 06:20:10;;;;;;;15.20;7.77;;;;;;;;;;5119954;28;20243;-65
2022/03/31 06:22:38;;;;;;;13.77;7.20;;;;;;;;;;5116228;28;20196;-65
2022/03/31 06:25:11;;;;;;;14.30;7.70;;;;;;;;;;5117367;28;20197;-69
2022/03/31 06:27:40;;;;;;;14.90;9.23;;;;;;;;;;5116767;28;20205;-67
2022/03/31 06:30:08;;;;;;;16.73;8.13;;;;;;;;;;5110053;28;20197;-67
2022/03/31 06:32:38;;;;;;;18.57;7.97;;;;;;;;;;5114439;28;20220;-66
2022/03/31 06:35:11;;;;;;;15.50;8.00;;;;;;;;;;5116876;28;20725;-67
2022/03/31 06:37:39;;;;;;;14.80;8.13;;;;;;;;;;5112568;28;20254;-67
2022/03/31 06:40:09;;;;;;;19.87;8.33;;;;;;;;;;5116028;28;20233;-67
2022/03/31 06:42:38;;;;;;;14.33;8.50;;;;;;;;;;5115313;28;20207;-67
2022/03/31 06:45:08;;;;;;;18.17;8.60;;;;;;;;;;5117424;28;20228;-68
2022/03/31 06:47:57;;;;;;;20.87;9.07;;;;;;;;;;5117301;28;20213;-69
2022/03/31 06:50:28;;;;;;;16.00;8.57;;;;;;;;;;5104727;28;20201;-69
2022/03/31 06:52:58;;;;;;;14.27;8.50;;;;;;;;;;5104915;28;20212;-69
2022/03/31 06:55:27;;;;;;;13.67;8.17;;;;;;;;;;5105634;28;20217;-69
2022/03/31 06:57:55;;;;;;;17.03;8.93;;;;;;;;;;5103111;28;20201;-69
2022/03/31 07:00:23;;;;;;;20.67;9.57;;;;;;;;;;5104536;28;20285;-69
2022/03/31 07:02:51;;;;;;;16.47;8.83;;;;;;;;;;5117692;28;20204;-69
2022/03/31 07:05:21;;;;;;;18.30;9.00;;;;;;;;;;5116432;28;20223;-69
2022/03/31 07:07:49;;;;;;;18.17;9.23;;;;;;;;;;5117488;28;20228;-69
2022/03/31 07:10:17;;;;;;;18.90;8.73;;;;;;;;;;5116978;28;20232;-69
2022/03/31 07:12:45;;;;;;;23.50;10.07;;;;;;;;;;5117709;28;20229;-69
2022/03/31 07:15:13;;;;;;;20.60;10.60;;;;;;;;;;5116824;28;20728;-69
2022/03/31 07:17:41;;;;;;;14.37;8.63;;;;;;;;;;5117064;28;20259;-69
2022/03/31 07:20:10;;;;;;;15.80;7.83;;;;;;;;;;5115372;28;20198;-70
2022/03/31 07:22:45;;;;;;;17.77;9.53;;;;;;;;;;5117745;28;20241;-70
2022/03/31 07:25:14;;;;;;;17.90;8.70;;;;;;;;;;5115250;28;20204;-70
2022/03/31 07:27:42;;;;;;;13.10;8.67;;;;;;;;;;5117486;28;20251;-68
2022/03/31 07:30:12;;;;;;;20.93;9.37;;;;;;;;;;5117352;28;20200;-70
2022/03/31 07:32:46;;;;;;;22.07;9.60;;;;;;;;;;5117667;28;20236;-68
2022/03/31 07:35:14;;;;;;;20.83;10.33;;;;;;;;;;5115900;28;20287;-69
2022/03/31 07:37:44;;;;;;;20.97;10.00;;;;;;;;;;5114971;28;20308;-68
2022/03/31 07:40:12;;;;;;;18.23;9.50;;;;;;;;;;5117459;28;20236;-69
2022/03/31 07:42:40;;;;;;;18.93;9.90;;;;;;;;;;5117907;28;20243;-68
2022/03/31 07:45:09;;;;;;;19.33;9.37;;;;;;;;;;5113392;28;20702;-69
2022/03/31 07:47:37;;;;;;;19.07;9.67;;;;;;;;;;5116958;28;20276;-68
2022/03/31 07:50:05;;;;;;;17.27;9.33;;;;;;;;;;5108399;28;20264;-68
2022/03/31 07:52:34;;;;;;;23.60;10.17;;;;;;;;;;5111043;28;20212;-68
2022/03/31 07:55:08;;;;;;;17.90;8.70;;;;;;;;;;5119452;28;20196;-68
2022/03/31 07:57:36;;;;;;;16.80;9.13;;;;;;;;;;5121006;28;20227;-68
2022/03/31 08:00:04;;;;;;;13.37;8.40;;;;;;;;;;5118755;28;20264;-68
2022/03/31 08:02:32;;;;;;;17.53;9.37;;;;;;;;;;5121356;28;20243;-68
2022/03/31 08:05:00;;;;;;;13.13;8.10;;;;;;;;;;5121082;28;20684;-68
2022/03/31 08:07:34;;;;;;;14.73;8.50;;;;;;;;;;5121097;28;20541;-68
2022/03/31 08:10:03;;;;;;;17.70;8.53;;;;;;;;;;5120863;28;20236;-68
2022/03/31 08:12:33;;;;;;;14.17;8.80;;;;;;;;;;5108893;28;20280;-68
2022/03/31 08:15:02;;;;;;;24.00;9.30;;;;;;;;;;5107699;28;20228;-68
2022/03/31 08:17:30;;;;;;;15.37;8.50;;;;;;;;;;5121539;28;20270;-68
2022/03/31 08:19:58;;;;;;;19.33;8.43;;;;;;;;;;5121857;28;20209;-68
2022/03/31 08:22:26;;;;;;;14.33;8.27;;;;;;;;;;5121344;28;20233;-68
2022/03/31 08:25:00;;;;;;;17.00;7.67;;;;;;;;;;5117446;28;20716;-68
2022/03/31 08:27:29;;;;;;;15.60;7.80;;;;;;;;;;5117156;27;20193;-68
2022/03/31 08:29:58;;;;;;;12.07;7.73;;;;;;;;;;5120482;28;20236;-68
2022/03/31 08:32:26;;;;;;;12.13;7.73;;;;;;;;;;5120473;28;20287;-69
2022/03/31 08:34:54;;;;;;;15.43;7.93;;;;;;;;;;5120750;28;20236;-68
2022/03/31 08:37:23;;;;;;;17.37;7.97;;;;;;;;;;5119841;27;20316;-68
2022/03/31 08:39:51;;;;;;;16.53;8.03;;;;;;;;;;5120283;28;20213;-68
2022/03/31 08:42:19;;;;;;;15.53;8.03;;;;;;;;;;5120571;28;20269;-69
2022/03/31 08:44:49;;;;;;;14.47;7.77;;;;;;;;;;5119799;27;20284;-68
2022/03/31 08:47:19;;;;;;;15.37;7.60;;;;;;;;;;5120336;28;20257;-69
2022/03/31 08:50:08;;;;;;;17.20;8.37;;;;;;;;;;5118488;27;20208;-68
2022/03/31 08:52:36;;;;;;;13.90;8.27;;;;;;;;;;5119818;28;20635;-69
2022/03/31 08:55:05;;;;;;;17.13;8.23;;;;;;;;;;5120129;28;20209;-68
2022/03/31 08:57:40;;;;;;;13.00;7.97;;;;;;;;;;5118790;28;20319;-68
2022/03/31 09:00:09;;;;;;;12.30;7.23;;;;;;;;;;5119911;28;20236;-68
2022/03/31 09:02:39;;;;;;;15.60;7.97;;;;;;;;;;5119732;28;20257;-68
2022/03/31 09:05:09;;;;;;;15.63;8.10;;;;;;;;;;5118952;28;20620;-69
2022/03/31 09:07:37;;;;;;;14.57;8.17;;;;;;;;;;5119707;28;20680;-68
2022/03/31 09:10:06;;;;;;;26.20;9.70;;;;;;;;;;5113139;28;20240;-69
2022/03/31 09:12:37;;;;;;;17.67;7.90;;;;;;;;;;5112850;28;20236;-69
2022/03/31 09:15:25;;;;;;;15.97;7.93;;;;;;;;;;5119371;28;20613;-69
2022/03/31 09:17:56;;;;;;;15.63;7.47;;;;;;;;;;5119116;28;20654;-68
2022/03/31 09:20:24;;;;;;;13.73;7.10;;;;;;;;;;5120654;28;20653;-69
2022/03/31 09:22:52;;;;;;;14.10;7.83;;;;;;;;;;5122281;28;20212;-74
2022/03/31 09:25:24;;;;;;;21.87;9.90;;;;;;;;;;5119620;28;20223;-75
2022/03/31 09:27:52;;;;;;;18.43;8.17;;;;;;;;;;5119842;28;20268;-74
2022/03/31 09:30:24;;;;;;;15.40;7.80;;;;;;;;;;5117595;28;20280;-74
2022/03/31 09:32:52;;;;;;;14.83;7.33;;;;;;;;;;5119348;28;20678;-74
2022/03/31 09:35:23;;;;;;;14.30;6.77;;;;;;;;;;5115597;28;20303;-74
2022/03/31 09:37:54;;;;;;;18.23;7.50;;;;;;;;;;5105027;28;20277;-72
2022/03/31 09:40:22;;;;;;;13.37;6.70;;;;;;;;;;5119554;28;20205;-71
2022/03/31 09:43:00;;;;;;;12.67;6.37;;;;;;;;;;5105550;28;20610;-72
2022/03/31 09:45:37;;;;;;;12.57;6.27;;;;;;;;;;5118733;28;20656;-74
2022/03/31 09:48:08;;;;;;;9.77;5.00;;;;;;;;;;5119351;28;20232;-74
2022/03/31 09:50:40;;;;;;;9.73;4.97;;;;;;;;;;5115840;28;20197;-73
2022/03/31 09:53:08;;;;;;;8.00;4.80;;;;;;;;;;5119057;28;20726;-67
2022/03/31 09:55:38;;;;;;;9.83;4.27;;;;;;;;;;5118765;28;20656;-68
2022/03/31 09:58:09;;;;;;;6.43;3.60;;;;;;;;;;5118734;28;20394;-69
2022/03/31 10:00:37;;;;;;;10.50;4.70;;;;;;;;;;5116760;28;20236;-69
2022/03/31 10:03:06;;;;;;;9.27;3.50;;;;;;;;;;5119441;28;20243;-69
2022/03/31 10:05:42;;;;;;;7.50;4.10;;;;;;;;;;5105663;28;20226;-70
2022/03/31 10:08:11;;;;;;;8.03;4.40;;;;;;;;;;5108971;28;20212;-69
2022/03/31 10:10:39;;;;;;;5.17;3.30;;;;;;;;;;5118117;28;20201;-68
2022/03/31 10:13:11;;;;;;;4.97;3.07;;;;;;;;;;5117220;28;20656;-70
2022/03/31 10:15:40;;;;;;;3.90;2.83;;;;;;;;;;5117858;28;20274;-69
2022/03/31 10:18:08;;;;;;;6.20;3.00;;;;;;;;;;5118713;28;20260;-69
2022/03/31 10:20:36;;;;;;;3.40;2.90;;;;;;;;;;5117372;28;20227;-68
2022/03/31 10:25:52;;;;;;;4.87;2.63;;;;;;;;;;5118575;28;20253;-69
2022/03/31 10:28:21;;;;;;;2.50;2.30;;;;;;;;;;5118418;28;20204;-70
2022/03/31 10:30:56;;;;;;;3.70;2.63;;;;;;;;;;5106207;28;20201;-67
2022/03/31 10:33:31;;;;;;;3.63;2.50;;;;;;;;;;5105060;28;20725;-70
2022/03/31 10:36:03;;;;;;;2.10;1.90;;;;;;;;;;5105109;28;20235;-69
2022/03/31 10:38:37;;;;;;;4.30;2.10;;;;;;;;;;5119890;28;20224;-69
2022/03/31 10:41:08;;;;;;;3.43;2.87;;;;;;;;;;5120498;28;20212;-69
2022/03/31 10:43:38;;;;;;;3.53;3.23;;;;;;;;;;5112780;28;20228;-69
2022/03/31 10:46:14;;;;;;;3.90;2.37;;;;;;;;;;5117348;28;20663;-69
2022/03/31 10:48:48;;;;;;;2.77;2.50;;;;;;;;;;5117794;28;20212;-69
2022/03/31 10:51:16;;;;;;;4.63;2.57;;;;;;;;;;5115128;28;20786;-69
2022/03/31 10:53:50;;;;;;;3.83;3.00;;;;;;;;;;5117730;28;20660;-69
2022/03/31 10:56:20;;;;;;;5.17;3.90;;;;;;;;;;5117059;28;20263;-69
2022/03/31 10:58:49;;;;;;;3.50;2.80;;;;;;;;;;5117962;28;20316;-69
2022/03/31 11:01:18;;;;;;;7.50;3.30;;;;;;;;;;5115625;28;20663;-69
2022/03/31 11:03:47;;;;;;;3.60;2.73;;;;;;;;;;5117962;28;20208;-69
2022/03/31 11:06:15;;;;;;;4.00;3.10;;;;;;;;;;5116335;28;20248;-69
2022/03/31 11:08:44;;;;;;;4.30;3.10;;;;;;;;;;5117763;28;20205;-69
2022/03/31 11:11:20;;;;;;;3.30;2.93;;;;;;;;;;5111211;28;20626;-69
2022/03/31 11:13:49;;;;;;;3.53;2.63;;;;;;;;;;5117707;28;20284;-68
2022/03/31 11:16:17;;;;;;;3.60;2.67;;;;;;;;;;5117111;28;20270;-69
2022/03/31 11:18:53;;;;;;;4.60;3.30;;;;;;;;;;5116990;28;20212;-69
2022/03/31 11:21:21;;;;;;;4.30;3.30;;;;;;;;;;5116704;28;20283;-69
2022/03/31 11:23:50;;;;;;;4.63;2.90;;;;;;;;;;5117787;28;20231;-69
2022/03/31 11:26:27;;;;;;;3.40;2.50;;;;;;;;;;5117070;28;20220;-69
2022/03/31 11:28:55;;;;;;;3.87;2.30;;;;;;;;;;5117448;28;20281;-68
2022/03/31 11:31:24;;;;;;;2.93;2.30;;;;;;;;;;5115504;28;20201;-69
2022/03/31 11:33:52;;;;;;;4.57;2.13;;;;;;;;;;5119480;28;20229;-69
2022/03/31 11:36:20;;;;;;;3.67;2.47;;;;;;;;;;5121257;28;20289;-69
2022/03/31 11:38:55;;;;;;;2.13;1.93;;;;;;;;;;5119676;28;20756;-68
2022/03/31 11:41:23;;;;;;;2.50;2.30;;;;;;;;;;5120267;28;20283;-69
2022/03/31 11:44:13;;;;;;;9.37;2.20;;;;;;;;;;5121184;28;20212;-69
2022/03/31 11:46:41;;;;;;;2.43;2.10;;;;;;;;;;5121225;28;20633;-69
2022/03/31 11:49:16;;;;;;;2.93;2.27;;;;;;;;;;5120158;28;20239;-70
2022/03/31 11:51:49;;;;;;;3.00;2.10;;;;;;;;;;5121162;28;20292;-69
2022/03/31 11:54:17;;;;;;;2.50;2.23;;;;;;;;;;5120138;28;20573;-69
2022/03/31 11:56:45;;;;;;;4.20;1.97;;;;;;;;;;5121312;28;20304;-68
2022/03/31 11:59:15;;;;;;;2.40;2.20;;;;;;;;;;5120712;28;20631;-69
2022/03/31 12:01:45;;;;;;;4.10;1.90;;;;;;;;;;5121395;28;20205;-69
2022/03/31 12:04:20;;;;;;;1.77;1.60;;;;;;;;;;5119927;28;20197;-69
2022/03/31 12:06:48;;;;;;;2.67;2.03;;;;;;;;;;5119268;28;20238;-69
2022/03/31 12:09:16;;;;;;;2.00;1.77;;;;;;;;;;5119639;28;20220;-69
2022/03/31 12:11:45;;;;;;;3.03;1.90;;;;;;;;;;5121000;28;20205;-69
2022/03/31 12:14:15;;;;;;;3.03;1.97;;;;;;;;;;5120691;28;20205;-69
2022/03/31 12:16:44;;;;;;;7.07;2.17;;;;;;;;;;5120904;28;20303;-69
2022/03/31 12:19:12;;;;;;;4.97;2.40;;;;;;;;;;5120737;28;20233;-69
2022/03/31 12:21:47;;;;;;;2.77;2.30;;;;;;;;;;5119934;28;20200;-68
2022/03/31 12:24:15;;;;;;;3.17;2.30;;;;;;;;;;5120552;28;20240;-69
2022/03/31 12:26:54;;;;;;;3.63;2.10;;;;;;;;;;5120660;28;20228;-68
2022/03/31 12:29:24;;;;;;;4.13;2.50;;;;;;;;;;5120320;28;20229;-69
2022/03/31 12:32:02;;;;;;;4.73;2.37;;;;;;;;;;5120611;28;20648;-68
2022/03/31 12:34:30;;;;;;;2.93;2.50;;;;;;;;;;5120181;28;20291;-69
2022/03/31 12:36:58;;;;;;;4.43;2.60;;;;;;;;;;5114759;28;20739;-68
2022/03/31 12:39:27;;;;;;;3.60;3.07;;;;;;;;;;5120128;28;20231;-69
2022/03/31 12:41:56;;;;;;;3.17;2.73;;;;;;;;;;5119572;28;20236;-68
2022/03/31 12:44:31;;;;;;;9.23;6.47;;;;;;;;;;5119529;28;20758;-69
2022/03/31 12:46:59;;;;;;;4.37;3.00;;;;;;;;;;5120337;28;20227;-69
2022/03/31 12:49:32;;;;;;;6.27;3.97;;;;;;;;;;5111847;28;20197;-68
2022/03/31 12:52:02;;;;;;;6.17;4.13;;;;;;;;;;5120859;28;20247;-68
2022/03/31 12:54:32;;;;;;;10.43;5.03;;;;;;;;;;5121721;28;20646;-69
2022/03/31 12:57:02;;;;;;;7.57;5.23;;;;;;;;;;5122317;27;20266;-69
2022/03/31 12:59:33;;;;;;;7.07;5.37;;;;;;;;;;5123192;28;20748;-69
2022/03/31 13:02:03;;;;;;;7.80;5.50;;;;;;;;;;5122717;28;20266;-68
2022/03/31 13:04:31;;;;;;;10.50;5.73;;;;;;;;;;5122281;28;20216;-69
2022/03/31 13:06:59;;;;;;;9.97;6.20;;;;;;;;;;5121434;28;20224;-68
2022/03/31 13:09:27;;;;;;;9.57;6.20;;;;;;;;;;5120946;28;20233;-69
2022/03/31 13:11:56;;;;;;;12.77;5.83;;;;;;;;;;5121642;28;20243;-69
2022/03/31 13:14:24;;;;;;;10.50;7.50;;;;;;;;;;5107898;28;20200;-69
2022/03/31 13:16:54;;;;;;;10.97;7.33;;;;;;;;;;5121571;28;20220;-69
2022/03/31 13:19:22;;;;;;;8.20;6.73;;;;;;;;;;5121756;28;20263;-69
2022/03/31 13:21:50;;;;;;;11.47;7.83;;;;;;;;;;5120281;28;20641;-68
2022/03/31 13:24:18;;;;;;;13.07;8.00;;;;;;;;;;5122330;28;20240;-68
2022/03/31 13:26:47;;;;;;;13.77;7.97;;;;;;;;;;5121548;28;20248;-69
2022/03/31 13:29:16;;;;;;;14.97;8.97;;;;;;;;;;5120776;28;20197;-69
2022/03/31 13:31:46;;;;;;;15.77;10.37;;;;;;;;;;5121344;28;20233;-69
2022/03/31 13:34:16;;;;;;;15.43;10.00;;;;;;;;;;5121390;28;20703;-69
2022/03/31 13:36:44;;;;;;;14.17;9.80;;;;;;;;;;5107318;28;20248;-68
2022/03/31 13:39:15;;;;;;;13.93;9.40;;;;;;;;;;5120560;28;20307;-69
2022/03/31 13:41:44;;;;;;;15.77;9.47;;;;;;;;;;5120950;28;20287;-68
2022/03/31 13:44:13;;;;;;;15.63;9.73;;;;;;;;;;5111353;28;20228;-69
2022/03/31 13:46:41;;;;;;;21.20;10.33;;;;;;;;;;5118088;28;20311;-68
2022/03/31 13:49:10;;;;;;;15.47;9.80;;;;;;;;;;5120560;28;20700;-68
2022/03/31 13:51:40;;;;;;;15.67;9.47;;;;;;;;;;5105674;28;20236;-68
2022/03/31 13:54:08;;;;;;;15.30;10.70;;;;;;;;;;5107375;28;20208;-68
2022/03/31 13:56:37;;;;;;;14.70;9.50;;;;;;;;;;5120057;28;20260;-69
2022/03/31 14:01:53;;;;;;;17.93;10.67;;;;;;;;;;5119505;28;20236;-68
2022/03/31 14:04:21;;;;;;;17.63;10.30;;;;;;;;;;5108555;28;20201;-69
2022/03/31 14:06:51;;;;;;;16.27;10.13;;;;;;;;;;5120070;28;20316;-68
2022/03/31 14:09:22;;;;;;;17.07;10.80;;;;;;;;;;5106554;28;20312;-69
2022/03/31 14:11:50;;;;;;;16.83;11.20;;;;;;;;;;5118379;28;20205;-68
2022/03/31 14:14:21;;;;;;;21.10;10.83;;;;;;;;;;5119312;28;20246;-69
2022/03/31 14:16:50;;;;;;;18.73;11.43;;;;;;;;;;5118828;28;20259;-68
2022/03/31 14:19:19;;;;;;;18.13;11.23;;;;;;;;;;5119665;28;20229;-69
2022/03/31 14:21:48;;;;;;;20.27;12.40;;;;;;;;;;5119821;28;20205;-69
2022/03/31 14:24:19;;;;;;;19.60;11.47;;;;;;;;;;5118726;28;20236;-69
2022/03/31 14:26:47;;;;;;;20.97;12.70;;;;;;;;;;5117835;28;20224;-68
2022/03/31 14:29:16;;;;;;;22.93;12.43;;;;;;;;;;5119160;28;20240;-69
2022/03/31 14:31:45;;;;;;;24.03;12.03;;;;;;;;;;5120630;28;20646;-68
2022/03/31 14:34:14;;;;;;;19.47;11.93;;;;;;;;;;5120071;28;20354;-68
2022/03/31 14:36:44;;;;;;;18.77;11.77;;;;;;;;;;5119546;28;20260;-68
2022/03/31 14:39:13;;;;;;;17.37;12.00;;;;;;;;;;5117900;28;20235;-69
2022/03/31 14:41:44;;;;;;;19.73;12.40;;;;;;;;;;5119313;28;20278;-68
2022/03/31 14:44:13;;;;;;;22.20;12.07;;;;;;;;;;5119885;28;20276;-69
2022/03/31 14:46:42;;;;;;;19.03;12.23;;;;;;;;;;5119770;28;20653;-69
2022/03/31 14:49:12;;;;;;;20.50;12.43;;;;;;;;;;5118425;28;20276;-69
2022/03/31 14:51:40;;;;;;;18.13;12.47;;;;;;;;;;5116843;28;20193;-69
2022/03/31 14:54:09;;;;;;;16.50;11.57;;;;;;;;;;5117744;28;20579;-69